Map

Track Data

SID SEASON NUMBER BASIN SUBBASIN NAME ISO_TIME NATURE LAT LON WMO_WIND WMO_PRES WMO_AGENCY TRACK_TYPE DIST2LAND LANDFALL IFLAG USA_AGENCY USA_ATCF_ID USA_LAT USA_LON USA_RECORD USA_STATUS USA_WIND USA_PRES USA_SSHS USA_R34_NE USA_R34_SE USA_R34_SW USA_R34_NW USA_R50_NE USA_R50_SE USA_R50_SW USA_R50_NW USA_R64_NE USA_R64_SE USA_R64_SW USA_R64_NW USA_POCI USA_ROCI USA_RMW USA_EYE TOKYO_LAT TOKYO_LON TOKYO_GRADE TOKYO_WIND TOKYO_PRES TOKYO_R50_DIR TOKYO_R50_LONG TOKYO_R50_SHORT TOKYO_R30_DIR TOKYO_R30_LONG TOKYO_R30_SHORT TOKYO_LAND CMA_LAT CMA_LON CMA_CAT CMA_WIND CMA_PRES HKO_LAT HKO_LON HKO_CAT HKO_WIND HKO_PRES NEWDELHI_LAT NEWDELHI_LON NEWDELHI_GRADE NEWDELHI_WIND NEWDELHI_PRES NEWDELHI_CI NEWDELHI_DP NEWDELHI_POCI REUNION_LAT REUNION_LON REUNION_TYPE REUNION_WIND REUNION_PRES REUNION_TNUM REUNION_CI REUNION_RMW REUNION_R34_NE REUNION_R34_SE REUNION_R34_SW REUNION_R34_NW REUNION_R50_NE REUNION_R50_SE REUNION_R50_SW REUNION_R50_NW REUNION_R64_NE REUNION_R64_SE REUNION_R64_SW REUNION_R64_NW BOM_LAT BOM_LON BOM_TYPE BOM_WIND BOM_PRES BOM_TNUM BOM_CI BOM_RMW BOM_R34_NE BOM_R34_SE BOM_R34_SW BOM_R34_NW BOM_R50_NE BOM_R50_SE BOM_R50_SW BOM_R50_NW BOM_R64_NE BOM_R64_SE BOM_R64_SW BOM_R64_NW BOM_ROCI BOM_POCI BOM_EYE BOM_POS_METHOD BOM_PRES_METHOD NADI_LAT NADI_LON NADI_CAT NADI_WIND NADI_PRES WELLINGTON_LAT WELLINGTON_LON WELLINGTON_WIND WELLINGTON_PRES DS824_LAT DS824_LON DS824_STAGE DS824_WIND DS824_PRES TD9636_LAT TD9636_LON TD9636_STAGE TD9636_WIND TD9636_PRES TD9635_LAT TD9635_LON TD9635_WIND TD9635_PRES TD9635_ROCI NEUMANN_LAT NEUMANN_LON NEUMANN_CLASS NEUMANN_WIND NEUMANN_PRES MLC_LAT MLC_LON MLC_CLASS MLC_WIND MLC_PRES USA_GUST BOM_GUST BOM_GUST_PER REUNION_GUST REUNION_GUST_PER USA_SEAHGT USA_SEARAD_NE USA_SEARAD_SE USA_SEARAD_SW USA_SEARAD_NW STORM_SPEED STORM_DIR
2018195N19138 2018 42 WP MM SON-TINH 2018-07-13 12:00:00 NR 19.0000 137.800 main 1518 1479 O_____________ jtwc_wp WP112018 19.0000 137.800 DB 20 1007 -3 1004 180 60 10 295
2018195N19138 2018 42 WP MM SON-TINH 2018-07-13 15:00:00 NR 19.2028 137.345 main 1475 1437 P_____________ WP112018 19.2028 137.345 DB 20 1007 -3 1004 180 60 9 295
2018195N19138 2018 42 WP MM SON-TINH 2018-07-13 18:00:00 NR 19.4000 136.900 main 1437 1399 O_____________ jtwc_wp WP112018 19.4000 136.900 DB 20 1007 -3 1004 180 60 9 295
2018195N19138 2018 42 WP MM SON-TINH 2018-07-13 21:00:00 NR 19.5923 136.465 main 1399 1359 P_____________ WP112018 19.5923 136.465 DB 22 1005 -3 1004 180 60 9 295
2018195N19138 2018 42 WP MM SON-TINH 2018-07-14 00:00:00 TS 19.8000 136.000 main 1359 1308 O_____________ jtwc_wp WP112018 19.8000 136.000 TD 25 1004 -1 1004 180 60 11 297
2018195N19138 2018 42 WP MM SON-TINH 2018-07-14 03:00:00 TS 20.0650 135.465 main 1308 1266 P_____________ WP112018 20.0650 135.465 TD 25 1004 -1 1004 177 60 11 296
2018195N19138 2018 42 WP MM SON-TINH 2018-07-14 06:00:00 TS 20.3000 134.900 main 1266 1240 O_____________ jtwc_wp WP112018 20.3000 134.900 TD 25 1004 -1 1004 175 60 11 290
2018195N19138 2018 42 WP MM SON-TINH 2018-07-14 09:00:00 TS 20.4294 134.387 main 1240 1213 P_____________ WP112018 20.4294 134.387 TD 25 1003 -1 1004 175 52 11 281
2018195N19138 2018 42 WP MM SON-TINH 2018-07-14 12:00:00 TS 20.5000 133.800 main 1213 1158 O_____________ jtwc_wp WP112018 20.5000 133.800 TD 25 1003 -1 1004 175 45 13 277
2018195N19138 2018 42 WP MM SON-TINH 2018-07-14 15:00:00 TS 20.5878 133.023 main 1147 1066 P_____________ WP112018 20.5878 133.023 TD 25 1003 -1 1004 175 45 15 274
2018195N19138 2018 42 WP MM SON-TINH 2018-07-14 18:00:00 TS 20.6000 132.200 main 1066 992 O_____________ jtwc_wp WP112018 20.6000 132.200 TD 25 1003 -1 1004 175 45 14 267
2018195N19138 2018 42 WP MM SON-TINH 2018-07-14 21:00:00 TS 20.5096 131.478 main 992 916 P_____________ WP112018 20.5096 131.478 TD 25 1003 -1 1004 167 42 13 257
2018195N19138 2018 42 WP MM SON-TINH 2018-07-15 00:00:00 TS 20.3000 130.800 main 916 848 O_____________ jtwc_wp WP112018 20.3000 130.800 TD 25 1003 -1 1004 160 40 14 247
2018195N19138 2018 42 WP MM SON-TINH 2018-07-15 03:00:00 TS 19.9798 130.127 main 838 768 P_____________ WP112018 19.9798 130.127 TD 25 1003 -1 1004 160 40 14 240
2018195N19138 2018 42 WP MM SON-TINH 2018-07-15 06:00:00 TS 19.6000 129.500 main 768 710 O_____________ jtwc_wp WP112018 19.6000 129.500 TD 25 1003 -1 1004 160 40 14 234
2018195N19138 2018 42 WP MM SON-TINH 2018-07-15 09:00:00 TS 19.1744 128.965 main 710 645 P_____________ WP112018 19.1744 128.965 TD 25 1002 -1 1004 155 40 13 236
2018195N19138 2018 42 WP MM SON-TINH 2018-07-15 12:00:00 TS 18.9000 128.400 main 645 572 O_____________ jtwc_wp WP112018 18.9000 128.400 TD 25 1002 -1 1004 150 40 12 262
2018195N19138 2018 42 WP MM SON-TINH 2018-07-15 15:00:00 TS 19.0125 127.681 main 572 492 P_____________ WP112018 19.0125 127.681 TD 25 1001 -1 1004 150 40 15 282
2018195N19138 2018 42 WP MM SON-TINH 2018-07-15 18:00:00 TS 19.2000 126.900 main 492 418 O_____________ jtwc_wp WP112018 19.2000 126.900 TD 25 1000 -1 1004 150 40 15 275
2018195N19138 2018 42 WP MM SON-TINH 2018-07-15 21:00:00 TS 19.1374 126.127 main 407 331 P_____________ WP112018 19.1374 126.127 TD 27 1000 -1 1004 150 40 15 258
2018195N19138 2018 42 WP MM SON-TINH 2018-07-16 00:00:00 TS 18.8714 125.329 1000 tokyo main 321 256 OOOO__________ jtwc_wp WP112018 19.0000 125.400 TD 30 1001 -1 1004 150 40 18.4000 125.300 2 1000 0 0 0 18.8000 125.300 1 25 1002 18.9000 125.100 TD 25 1000 15 256
2018195N19138 2018 42 WP MM SON-TINH 2018-07-16 03:00:00 TS 18.7824 124.623 main 246 174 PPPO__________ WP112018 18.8993 124.800 TD 30 1001 -1 1004 155 40 18.4927 124.680 2 999 0 0 18.8208 124.535 1 27 1001 18.8000 124.300 TD 25 1000 14 265
2018195N19138 2018 42 WP MM SON-TINH 2018-07-16 06:00:00 TS 18.7538 123.900 998 tokyo main 174 100 OOOO__________ jtwc_wp WP112018 18.8000 124.200 TD 30 1001 -1 1004 160 40 18.6000 124.000 2 998 0 0 0 18.8000 123.800 1 29 1000 18.8000 123.500 TD 25 1000 14 267
2018195N19138 2018 42 WP MM SON-TINH 2018-07-16 09:00:00 TS 18.7216 123.158 main 100 39 PPPO__________ WP112018 18.6246 123.501 TD 32 1000 -1 1004 160 40 18.7349 123.222 2 998 0 0 18.7270 123.107 1 29 1000 18.8000 122.800 TD 30 996 14 270
2018195N19138 2018 42 WP MM SON-TINH 2018-07-16 12:00:00 TS 18.7500 122.450 998 tokyo main 49 44 OOOO__________ jtwc_wp WP112018 18.6000 122.700 TS 35 999 0 130 120 120 110 1004 160 40 18.9000 122.400 2 998 0 0 0 18.7000 122.400 1 29 1000 18.8000 122.300 TD 30 996 14 280
2018195N19138 2018 42 WP MM SON-TINH 2018-07-16 15:00:00 TS 18.9505 121.720 main 64 55 PPPO__________ WP112018 18.9765 121.834 TS 35 997 0 130 120 120 110 1002 152 42 19.1139 121.653 2 998 0 0 18.8116 121.695 1 29 1000 18.9000 121.700 TD 30 996 16 285
2018195N19138 2018 42 WP MM SON-TINH 2018-07-16 18:00:00 TS 19.1750 120.800 998 tokyo main 67 67 OOOO__________ jtwc_wp WP112018 19.4000 120.800 TS 35 996 0 130 120 120 110 1001 145 45 19.3000 120.800 2 998 0 0 0 19.0000 120.800 1 29 1000 19.0000 120.800 TD 30 996 20 281
2018195N19138 2018 42 WP MM SON-TINH 2018-07-16 21:00:00 TS 19.3300 119.617 main 145 145 PPOO__________ WP112018 19.5252 119.544 TS 37 996 0 125 100 105 100 1001 132 47 19.3947 119.725 2 997 0 0 19.2000 119.600 1 29 1000 19.2000 119.600 TD 30 996 23 276
2018195N19138 2018 42 WP MM SON-TINH 2018-07-17 00:00:00 TS 19.4000 118.325 35 996 tokyo main 266 266 OOOO__________ jtwc_wp WP112018 19.5000 118.200 TS 40 996 0 120 80 90 90 1001 120 50 19.4000 118.500 3 35 996 0 8 210 120 0 19.4000 118.400 2 34 995 19.3000 118.200 TD 30 996 25 271
2018195N19138 2018 42 WP MM SON-TINH 2018-07-17 03:00:00 TS 19.3611 116.980 main 389 369 PPOO__________ WP112018 19.4219 116.920 TS 40 996 0 105 80 90 90 1000 130 50 19.3225 117.200 3 35 996 0 8 210 120 19.4000 117.000 2 34 995 19.3000 116.800 TS 35 992 25 268
2018195N19138 2018 42 WP MM SON-TINH 2018-07-17 06:00:00 TS 19.3000 115.700 35 996 tokyo main 365 349 OOOO__________ jtwc_wp WP112018 19.3000 115.700 TS 40 996 0 90 80 90 90 1000 140 50 19.2000 115.900 3 35 996 0 8 210 120 0 19.4000 115.800 2 34 995 19.3000 115.400 TS 35 992 22 265
2018195N19138 2018 42 WP MM SON-TINH 2018-07-17 09:00:00 TS 19.1744 114.626 main 344 278 PPOO__________ WP112018 19.1989 114.578 TS 40 994 0 85 75 90 90 999 140 50 19.0989 114.728 3 37 995 0 8 210 120 19.2000 114.700 2 38 992 19.2000 114.500 TS 35 992 20 263
2018195N19138 2018 42 WP MM SON-TINH 2018-07-17 12:00:00 TS 19.0500 113.550 40 994 tokyo main 278 161 OOOO__________ jtwc_wp WP112018 19.1000 113.500 TS 40 993 0 80 70 90 90 998 140 50 19.0000 113.600 3 40 994 0 8 210 120 0 19.0000 113.500 2 38 992 19.1000 113.600 TS 40 990 22 265
2018195N19138 2018 42 WP MM SON-TINH 2018-07-17 15:00:00 TS 18.9961 112.349 main 152 84 PPOO__________ WP112018 18.9848 112.370 TS 40 995 0 70 65 85 85 999 195 45 18.8997 112.428 3 40 994 0 8 210 120 19.0000 112.300 2 44 988 19.1000 112.300 TS 45 986 21 266
2018195N19138 2018 42 WP MM SON-TINH 2018-07-17 18:00:00 TS 18.9000 111.300 40 994 tokyo main 74 0 OOOO__________ jtwc_wp WP112018 18.9000 111.300 TS 40 997 0 60 60 80 80 1001 250 40 18.8000 111.300 3 40 994 0 8 210 120 0 18.9000 111.300 2 44 988 19.0000 111.300 TS 45 986 19 264
2018195N19138 2018 42 WP MM SON-TINH 2018-07-17 21:00:00 TS 18.7885 110.370 main 0 0 PPOO__________ WP112018 18.8844 110.348 TS 40 997 0 60 55 75 80 1001 245 37 18.6697 110.232 3 37 995 0 8 210 120 18.8000 110.400 2 44 988 18.8000 110.500 TS 45 986 18 266
2018195N19138 2018 42 WP MM SON-TINH 2018-07-18 00:00:00 TS 18.7750 109.450 35 996 tokyo main 0 0 OOOO__________ jtwc_wp WP112018 18.9000 109.500 TS 40 997 0 60 50 70 80 1001 240 35 18.6000 109.300 3 35 996 0 8 210 120 0 18.8000 109.500 2 34 995 18.8000 109.500 TS 35 992 16 270
2018195N19138 2018 42 WP MM SON-TINH 2018-07-18 03:00:00 TS 18.7747 108.686 main 0 0 PPOO__________ WP112018 18.9146 108.713 TS 42 994 0 60 50 65 75 1000 222 35 18.6844 108.533 3 37 995 0 8 210 120 18.8000 108.800 2 34 995 18.7000 108.700 TS 35 992 14 270
2018195N19138 2018 42 WP MM SON-TINH 2018-07-18 06:00:00 TS 18.7750 107.975 40 994 tokyo main 73 73 OOOO__________ jtwc_wp WP112018 18.9000 108.000 TS 45 991 0 60 50 60 70 999 205 35 18.8000 107.900 3 40 994 0 8 210 120 0 18.7000 108.000 2 38 992 18.7000 108.000 TS 40 990 13 268
2018195N19138 2018 42 WP MM SON-TINH 2018-07-18 09:00:00 TS 18.7393 107.317 main 116 76 PPPO__________ WP112018 18.7772 107.327 TS 47 990 0 60 50 55 70 999 195 35 18.8146 107.335 3 40 994 0 8 210 120 18.6656 107.306 2 38 992 18.7000 107.300 TS 40 990 12 268
2018195N19138 2018 42 WP MM SON-TINH 2018-07-18 12:00:00 TS 18.7250 106.725 40 994 tokyo main 70 43 OOOO__________ jtwc_wp WP112018 18.7000 106.700 TS 50 989 0 60 50 50 70 23 17 17 29 1000 185 35 18.8000 106.800 3 40 994 0 8 210 120 0 18.7000 106.700 2 38 992 18.7000 106.700 TS 40 990 11 273
2018195N19138 2018 42 WP MM SON-TINH 2018-07-18 15:00:00 TS 18.7955 106.155 main 43 0 PPPO__________ WP112018 18.8199 106.070 TS 47 990 0 60 50 50 70 1000 185 35 18.7774 106.207 3 37 994 0 8 180 105 18.7846 106.143 2 38 992 18.8000 106.200 TS 45 986 11 282
2018195N19138 2018 42 WP MM SON-TINH 2018-07-18 18:00:00 TS 18.9500 105.600 35 994 tokyo main 0 0 OOOO__________ jtwc_wp WP112018 19.0000 105.500 TS 45 992 0 60 50 50 70 1000 185 35 18.8000 105.600 3 35 994 0 8 150 90 0 18.9000 105.600 2 38 992 19.1000 105.700 TS 40 990 11 284
2018195N19138 2018 42 WP MM SON-TINH 2018-07-18 21:00:00 TS 19.0549 105.026 main 0 0 PPPO__________ WP112018 19.1073 105.020 TS 42 993 0 60 50 50 65 1000 185 37 18.9199 104.993 3 996 0 8 18.9925 104.992 2 36 993 19.2000 105.100 TS 35 992 10 281
2018195N19138 2018 42 WP MM SON-TINH 2018-07-19 00:00:00 TS 19.1500 104.550 998 tokyo main 0 0 OOOO__________ jtwc_wp WP112018 19.2000 104.600 TS 40 994 0 60 50 50 60 1000 185 40 19.1000 104.400 2 998 0 0 0 19.1000 104.400 2 34 995 19.2000 104.800 TD 30 996 10 284
2018195N19138 2018 42 WP MM SON-TINH 2018-07-19 03:00:00 TS 19.2881 104.039 main 0 0 PPPP__________ WP112018 19.2849 104.185 TS 37 995 0 55 45 50 60 1001 185 30 19.3226 103.790 2 999 0 0 19.2649 103.855 2 31 997 19.2797 104.327 TD 25 998 10 287
2018195N19138 2018 42 WP MM SON-TINH 2018-07-19 06:00:00 TS 19.4250 103.575 1000 tokyo main 0 0 OOOO__________ jtwc_wp WP112018 19.4000 103.800 TS 35 996 0 50 40 50 60 1002 185 20 19.5000 103.300 2 1000 0 0 0 19.4000 103.400 1 29 1000 19.4000 103.800 LW 20 1000 8 285
2018195N19138 2018 42 WP MM SON-TINH 2018-07-19 09:00:00 TS 19.5055 103.191 main 0 0 PPPP__________ WP112018 19.5925 103.428 TS 32 997 -1 1002 180 22 19.5222 102.980 2 1000 0 0 19.3999 102.980 1 29 1000 19.5074 103.378 LW 20 1000 6 284
2018195N19138 2018 42 WP MM SON-TINH 2018-07-19 12:00:00 TS 19.5750 102.950 1000 tokyo main 0 0 OOOO__________ jtwc_wp WP112018 19.8000 103.100 TD 30 999 -1 1003 175 25 19.5000 102.900 2 1000 0 0 0 19.4000 102.800 1 29 1000 19.6000 103.000 LW 20 1000 3 298
2018195N19138 2018 42 WP MM SON-TINH 2018-07-19 15:00:00 TS 19.6638 102.877 main 0 0 PPPP__________ WP112018 19.9425 102.805 TD 27 1001 -1 1004 175 35 19.5351 103.083 2 1000 0 0 19.5352 103.025 1 27 1001 19.6426 102.597 LW 20 1000 2 352
2018195N19138 2018 42 WP MM SON-TINH 2018-07-19 18:00:00 TS 19.7750 102.925 1000 tokyo main 0 0 OOOO__________ jtwc_wp WP112018 20.1000 102.600 TD 25 1003 -1 1005 175 45 19.6000 103.400 2 1000 0 0 0 19.7000 103.400 1 25 1002 19.7000 102.300 LW 20 1000 3 21
2018195N19138 2018 42 WP MM SON-TINH 2018-07-19 21:00:00 TS 19.9174 102.981 main 0 0 PPPP__________ WP112018 20.3574 102.475 TD 22 1005 -1 1005 175 45 19.6850 103.658 2 1001 0 0 19.7999 103.615 1 25 1002 19.8274 102.175 LW 20 1000 3 28
2018195N19138 2018 42 WP MM SON-TINH 2018-07-20 00:00:00 TS 20.0750 103.100 1002 tokyo main 0 0 OOOO__________ jtwc_wp WP112018 20.6000 102.500 DB 20 1007 -3 1005 175 45 19.8000 103.900 2 1002 0 0 0 19.9000 103.800 1 25 1002 20.0000 102.200 LW 20 1000 4 41
2018195N19138 2018 42 WP MM SON-TINH 2018-07-20 03:00:00 TS 20.2381 103.272 main 0 0 PPPP__________ WP112018 20.7376 102.705 DB 20 1007 -3 1005 175 45 19.9425 104.115 2 1001 0 0 20.0574 103.992 1 25 1002 20.2148 102.275 LW 20 1000 5 51
2018195N19138 2018 42 WP MM SON-TINH 2018-07-20 06:00:00 TS 20.3750 103.500 1000 tokyo main 0 0 OOOO__________ jtwc_wp WP112018 20.8000 103.000 DB 20 1007 -3 1005 175 45 20.1000 104.300 2 1000 0 0 0 20.2000 104.200 1 25 1002 20.4000 102.500 LW 20 1000 5 64
2018195N19138 2018 42 WP MM SON-TINH 2018-07-20 09:00:00 TS 20.4618 103.754 main 0 0 PPPP__________ WP112018 20.8149 103.243 DB 17 1006 -3 1005 175 45 20.2724 104.443 2 1000 0 0 20.2800 104.442 1 25 1001 20.4800 102.890 LW 20 1000 5 76
2018195N19138 2018 42 WP MM SON-TINH 2018-07-20 12:00:00 TS 20.5000 104.050 1000 tokyo main 0 0 OOOO__________ jtwc_wp WP112018 20.8000 103.500 DB 15 1005 -3 1005 175 45 20.4000 104.600 2 1000 0 0 0 20.3000 104.700 1 25 1000 20.5000 103.400 LW 20 1000 6 86
2018195N19138 2018 42 WP MM SON-TINH 2018-07-20 15:00:00 TS 20.5006 104.374 main 0 0 PPPP__________ WP112018 20.8148 103.762 DB 15 1003 -3 1004 175 45 20.4375 104.843 2 1000 0 0 20.2650 104.958 1 25 1000 20.4850 103.935 LW 20 1000 6 92
2018195N19138 2018 42 WP MM SON-TINH 2018-07-20 18:00:00 TS 20.4750 104.725 1000 tokyo main 0 0 OOOO__________ jtwc_wp WP112018 20.8000 104.100 DB 15 1001 -3 1003 175 45 20.4000 105.100 2 1000 0 0 0 20.2000 105.200 1 25 1000 20.5000 104.500 LW 20 1000 7 91
2018195N19138 2018 42 WP MM SON-TINH 2018-07-20 21:00:00 TS 20.4856 105.091 main 0 0 PPPP__________ WP112018 20.7526 104.577 DB 17 1002 -3 1003 167 45 20.3224 105.300 2 1000 0 0 20.1575 105.407 1 25 1000 20.7101 105.079 LW 20 1000 7 94
2018195N19138 2018 42 WP MM SON-TINH 2018-07-21 00:00:00 TS 20.4250 105.450 1000 tokyo main 0 0 OOOO__________ jtwc_wp WP112018 20.6000 105.100 DB 20 1003 -3 1003 160 45 20.2000 105.500 2 1000 0 0 0 20.1000 105.600 1 25 1000 20.8000 105.600 LW 20 1000 7 114
2018195N19138 2018 42 WP MM SON-TINH 2018-07-21 03:00:00 TS 20.1918 105.785 main 0 0 PPPP__________ WP112018 20.2575 105.580 DB 22 1001 -3 1002 155 45 20.0500 105.735 2 999 0 0 20.0075 105.800 1 25 1000 20.4524 106.026 LW 20 999 8 130
2018195N19138 2018 42 WP MM SON-TINH 2018-07-21 06:00:00 TS 19.9250 106.075 998 tokyo main 11 11 OOOO__________ jtwc_wp WP112018 19.9000 106.000 TD 25 999 -1 1001 150 45 19.9000 106.000 2 998 0 0 0 19.9000 106.000 1 25 1000 20.0000 106.300 LW 20 998 6 132
2018195N19138 2018 42 WP MM SON-TINH 2018-07-21 09:00:00 TS 19.7681 106.279 main 24 24 PPPP__________ WP112018 19.7123 106.322 TD 27 998 -1 1001 150 45 19.7925 106.300 2 998 0 0 19.8203 106.159 1 27 999 19.7472 106.335 LW 20 998 5 125
2018195N19138 2018 42 WP MM SON-TINH 2018-07-21 12:00:00 TS 19.6500 106.500 998 tokyo main 45 45 OOOO__________ jtwc_wp WP112018 19.6000 106.600 TD 30 997 -1 1001 150 45 19.7000 106.600 2 998 0 0 0 19.7000 106.400 1 29 998 19.6000 106.400 LW 20 998 6 114
2018195N19138 2018 42 WP MM SON-TINH 2018-07-21 15:00:00 TS 19.5331 106.851 main 88 88 PPOP__________ WP112018 19.4925 106.900 TD 32 996 -1 1001 155 45 19.5999 106.857 2 997 0 0 19.5000 106.800 1 29 998 19.5402 106.847 LW 22 996 7 107
2018195N19138 2018 42 WP MM SON-TINH 2018-07-21 18:00:00 TS 19.4500 107.175 996 tokyo main 107 115 OOOO__________ jtwc_wp WP112018 19.4000 107.200 TS 35 996 0 40 60 60 40 1002 160 45 19.5000 107.100 2 996 0 0 0 19.4000 107.100 1 29 998 19.5000 107.300 TD 25 995 6 108
2018195N19138 2018 42 WP MM SON-TINH 2018-07-21 21:00:00 TS 19.3500 107.437 main 125 94 PPOO__________ WP112018 19.3000 107.507 TS 35 995 0 55 85 70 55 1001 155 45 19.3999 107.342 2 996 0 0 19.3000 107.400 1 29 998 19.4000 107.500 TD 30 992 5 112
2018195N19138 2018 42 WP MM SON-TINH 2018-07-22 00:00:00 TS 19.2500 107.700 996 tokyo main 94 74 OOOO__________ jtwc_wp WP112018 19.2000 107.800 TS 35 994 0 70 110 80 70 1001 150 45 19.3000 107.600 2 996 0 0 0 19.2000 107.700 1 29 998 19.3000 107.700 TD 30 992 5 114
2018195N19138 2018 42 WP MM SON-TINH 2018-07-22 03:00:00 TS 19.1425 107.934 main 76 47 PPOO__________ WP112018 19.0849 108.058 TS 35 993 0 70 110 80 70 1000 155 55 19.1849 107.878 2 996 0 0 19.1000 108.000 1 29 998 19.2000 107.800 TD 30 992 5 112
2018195N19138 2018 42 WP MM SON-TINH 2018-07-22 06:00:00 TS 19.0500 108.225 996 tokyo main 47 21 OOOO__________ jtwc_wp WP112018 19.0000 108.300 TS 35 993 0 70 110 80 70 1000 160 65 19.1000 108.200 2 996 0 0 0 19.0000 108.300 1 29 998 19.1000 108.100 TD 30 992 45 6 107
2018195N19138 2018 42 WP MM SON-TINH 2018-07-22 09:00:00 TS 18.9794 108.491 main 21 0 PPOO__________ WP112018 18.9625 108.558 TS 35 993 0 75 110 80 70 1000 160 65 19.0551 108.608 2 995 0 0 18.9000 108.500 1 29 990 19.0000 108.300 TD 30 992 6 92
2018195N19138 2018 42 WP MM SON-TINH 2018-07-22 12:00:00 TS 19.0250 108.850 994 tokyo main 0 0 OOOO__________ jtwc_wp WP112018 19.0000 108.800 TS 35 993 0 80 110 80 70 1000 160 65 19.1000 109.000 2 994 0 0 0 18.9000 108.800 1 29 990 19.1000 108.800 TD 30 992 6 69
2018195N19138 2018 42 WP MM SON-TINH 2018-07-22 15:00:00 TS 19.1975 109.095 main 0 0 PPOO__________ WP112018 19.1199 109.000 TS 35 994 0 80 110 80 70 1000 162 65 19.2699 109.280 2 994 0 0 19.1000 109.100 1 29 994 19.3000 109.000 TD 30 992 6 52
2018195N19138 2018 42 WP MM SON-TINH 2018-07-22 18:00:00 TS 19.4000 109.350 994 tokyo main 0 0 OOOO__________ jtwc_wp WP112018 19.3000 109.200 TS 35 996 0 80 110 80 70 1001 165 65 19.5000 109.500 2 994 0 0 0 19.4000 109.400 1 29 994 19.4000 109.300 TD 30 992 6 48
2018195N19138 2018 42 WP MM SON-TINH 2018-07-22 21:00:00 TS 19.6175 109.584 main 0 0 PPOO__________ WP112018 19.4775 109.435 TS 35 996 0 80 110 80 70 1001 165 65 19.6924 109.700 2 995 0 0 19.7000 109.600 1 29 994 19.6000 109.600 TD 30 992 6 42
2018195N19138 2018 42 WP MM SON-TINH 2018-07-23 00:00:00 TS 19.8750 109.800 996 tokyo main 0 0 OOOO__________ jtwc_wp WP112018 19.7000 109.700 TS 35 997 0 80 110 80 70 1001 165 65 19.9000 109.900 2 996 0 0 0 20.0000 109.800 1 29 994 19.9000 109.800 TD 30 992 7 38
2018195N19138 2018 42 WP MM SON-TINH 2018-07-23 03:00:00 TS 20.2069 110.070 main 11 0 PPOO__________ WP112018 19.9701 110.022 TS 32 996 -1 1000 177 75 20.1575 110.157 2 995 0 0 20.3000 110.000 1 29 994 20.4000 110.100 TD 30 992 7 37
2018195N19138 2018 42 WP MM SON-TINH 2018-07-23 06:00:00 TS 20.4000 110.225 994 tokyo main 0 0 OOOO__________ jtwc_wp WP112018 20.3000 110.300 TD 30 996 -1 999 190 85 20.4000 110.400 2 994 0 0 0 20.4000 110.100 1 29 994 20.5000 110.100 TD 30 992 5 37
2018195N19138 2018 42 WP MM SON-TINH 2018-07-23 09:00:00 TS 20.5700 110.358 main 0 0 PPOO__________ WP112018 20.7299 110.445 TD 30 995 -1 999 190 85 20.5500 110.588 2 994 0 0 20.5000 110.200 1 29 994 20.5000 110.200 TD 30 992 4 31
2018195N19138 2018 42 WP MM SON-TINH 2018-07-23 12:00:00 TS 20.7500 110.450 994 tokyo main 15 15 OOOO__________ jtwc_wp WP112018 21.1000 110.500 TD 30 995 -1 999 190 85 20.7000 110.700 2 994 0 0 0 20.6000 110.300 1 29 994 20.6000 110.300 TD 30 992 4 23
2018195N19138 2018 42 WP MM SON-TINH 2018-07-23 15:00:00 TS 20.9086 110.516 main 24 11 PPOO__________ WP112018 21.2299 110.552 TD 30 997 -1 1000 185 67 20.9046 110.812 2 994 0 0 20.8000 110.400 1 29 994 20.7000 110.300 TD 30 992 4 2
2018195N19138 2018 42 WP MM SON-TINH 2018-07-23 18:00:00 TS 21.1250 110.475 994 tokyo main 11 0 OOOO__________ jtwc_wp WP112018 21.3000 110.500 TD 30 999 -1 1001 180 50 21.2000 110.700 2 994 0 0 0 21.1000 110.400 1 29 994 20.9000 110.300 TD 25 995 6 342
2018195N19138 2018 42 WP MM SON-TINH 2018-07-23 21:00:00 TS 21.4840 110.312 main 0 0 PPOO__________ WP112018 21.4850 110.303 TD 27 998 -1 1001 157 37 21.6508 110.146 2 996 0 0 21.5000 110.400 1 29 994 21.3000 110.400 TD 25 995 10 327
2018195N19138 2018 42 WP MM SON-TINH 2018-07-24 00:00:00 TS 21.9429 109.907 998 tokyo main 0 0 OOOO__________ jtwc_wp WP112018 21.7000 110.000 TD 25 998 -1 1001 135 25 22.1000 109.500 2 998 0 0 0 22.0000 110.100 1 29 994 21.9000 110.100 TD 25 995 11 315
2018195N19138 2018 42 WP MM SON-TINH 2018-07-24 03:00:00 TS 22.2941 109.444 main 0 0 PPOO__________ WP112018 21.9051 109.658 TD 22 998 -1 1000 135 27 22.3796 109.154 2 998 0 0 22.4000 109.600 1 25 994 22.3000 109.500 TD 25 995 10 306
2018195N19138 2018 42 WP MM SON-TINH 2018-07-24 06:00:00 TS 22.5333 109.033 998 tokyo main 0 0 OOOO__________ jtwc_wp WP112018 22.1000 109.300 DB 20 999 -3 1000 135 30 22.6000 108.900 2 998 0 0 0 22.6000 109.100 1 25 994 22.5000 109.100 LW 20 998 9 306
2018195N19138 2018 42 WP MM SON-TINH 2018-07-24 09:00:00 TS 22.8333 108.638 main 0 0 _PO___________ WP112018 DB -3 22.8499 108.607 2 998 0 0 22.8000 108.700 1 25 996 9 309
2018195N19138 2018 42 WP MM SON-TINH 2018-07-24 12:00:00 TS 23.0750 108.300 998 tokyo main 0 0 _OO___________ 23.1000 108.300 2 998 0 0 0 23.0000 108.300 1 25 996 8 310
2018195N19138 2018 42 WP MM SON-TINH 2018-07-24 15:00:00 TS 23.3502 107.960 main 0 0 _P____________ 23.3502 107.960 2 999 0 0 8 309
2018195N19138 2018 42 WP MM SON-TINH 2018-07-24 18:00:00 TS 23.6000 107.600 1000 tokyo main 0 _O____________ 23.6000 107.600 2 1000 0 0 0 8 307

Digital Typhoon Data and Search

About IBTrACS Database

This database is a web-friendly format of International Best Track Archive for Climate Stewardship (IBTrACS), a global best track data archive curated by NOAA dating back to 1842.

Updated: 2021-11-26